Time;durP1;ratioP1;P1;durP2;ratioP2;P2;SDS_P1;SDS_P2;PMS_P1;PMS_P2;Temp;Humidity;BMP_temperature;BMP_pressure;BME280_temperature;BME280_humidity;BME280_pressure;Samples;Min_cycle;Max_cycle;Signal;HPM_P1;HPM_P2
2023/04/25 00:00:00;;;;;;;0.00;0.00;;;;;;;;;;4992802;28;20038;-90
2023/04/25 00:02:28;;;;;;;0.00;0.00;;;;;;;;;;4992388;28;20039;-89
2023/04/25 00:04:54;;;;;;;0.00;0.00;;;;;;;;;;4976195;28;20113;-89
2023/04/25 00:07:20;;;;;;;0.00;0.00;;;;;;;;;;4976256;28;20482;-90
2023/04/25 00:09:46;;;;;;;0.00;0.00;;;;;;;;;;4992622;28;20049;-89
2023/04/25 00:12:12;;;;;;;0.00;0.00;;;;;;;;;;4992111;28;20046;-89
2023/04/25 00:14:38;;;;;;;0.00;0.00;;;;;;;;;;4992571;28;20042;-89
2023/04/25 00:17:05;;;;;;;0.00;0.00;;;;;;;;;;4992144;28;20078;-88
2023/04/25 00:19:32;;;;;;;0.00;0.00;;;;;;;;;;4975836;28;20056;-90
2023/04/25 00:21:58;;;;;;;0.00;0.00;;;;;;;;;;4992505;28;20050;-89
2023/04/25 00:24:24;;;;;;;0.00;0.00;;;;;;;;;;4976830;28;20049;-89
2023/04/25 00:26:50;;;;;;;0.00;0.00;;;;;;;;;;4975964;28;20042;-90
2023/04/25 00:29:16;;;;;;;0.00;0.00;;;;;;;;;;4976406;28;20049;-89
2023/04/25 00:31:43;;;;;;;0.00;0.00;;;;;;;;;;4976065;28;20409;-89
2023/04/25 00:34:09;;;;;;;0.00;0.00;;;;;;;;;;4992241;28;20057;-89
2023/04/25 00:36:36;;;;;;;0.00;0.00;;;;;;;;;;4991960;28;20524;-89
2023/04/25 00:39:02;;;;;;;0.00;0.00;;;;;;;;;;4992033;28;20046;-88
2023/04/25 00:41:30;;;;;;;0.00;0.00;;;;;;;;;;4975709;28;20046;-88
2023/04/25 00:43:56;;;;;;;0.00;0.00;;;;;;;;;;4975882;28;20045;-89
2023/04/25 00:46:22;;;;;;;0.00;0.00;;;;;;;;;;4991559;28;20049;-88
2023/04/25 00:48:48;;;;;;;0.00;0.00;;;;;;;;;;4991929;28;20046;-89
2023/04/25 00:51:16;;;;;;;0.00;0.00;;;;;;;;;;4975604;28;20046;-87
2023/04/25 00:53:42;;;;;;;0.00;0.00;;;;;;;;;;4975510;28;20085;-88
2023/04/25 00:56:08;;;;;;;0.00;0.00;;;;;;;;;;4975891;28;20046;-89
2023/04/25 00:58:35;;;;;;;0.00;0.00;;;;;;;;;;4977235;28;20170;-88
2023/04/25 01:01:01;;;;;;;0.00;0.00;;;;;;;;;;4993694;28;20108;-88
2023/04/25 01:03:28;;;;;;;0.00;0.00;;;;;;;;;;4975658;28;20086;-88
2023/04/25 01:05:54;;;;;;;0.00;0.00;;;;;;;;;;4975874;28;20391;-87
2023/04/25 01:08:24;;;;;;;0.00;0.00;;;;;;;;;;4991547;28;20157;-87
2023/04/25 01:10:50;;;;;;;0.32;0.32;;;;;;;;;;4991833;28;20276;-89
2023/04/25 01:13:16;;;;;;;0.00;0.00;;;;;;;;;;4991639;28;20038;-89
2023/04/25 01:15:42;;;;;;;0.00;0.00;;;;;;;;;;4991581;28;20497;-88
2023/04/25 01:18:08;;;;;;;0.00;0.00;;;;;;;;;;4991235;28;20034;-89
2023/04/25 01:20:34;;;;;;;0.00;0.00;;;;;;;;;;4975333;28;20042;-88
2023/04/25 01:23:02;;;;;;;0.00;0.00;;;;;;;;;;4976602;28;20490;-87
2023/04/25 01:25:29;;;;;;;0.00;0.00;;;;;;;;;;4979654;28;20402;-88
2023/04/25 01:27:55;;;;;;;0.00;0.00;;;;;;;;;;4978835;28;20076;-89
2023/04/25 01:30:21;;;;;;;0.00;0.00;;;;;;;;;;4979224;28;20045;-88
2023/04/25 01:32:47;;;;;;;0.00;0.00;;;;;;;;;;4978548;28;20129;-89
2023/04/25 01:35:14;;;;;;;0.00;0.00;;;;;;;;;;4995071;28;20105;-89
2023/04/25 01:37:40;;;;;;;0.00;0.00;;;;;;;;;;4978836;28;20044;-89
2023/04/25 01:40:07;;;;;;;0.00;0.00;;;;;;;;;;4995388;28;20501;-89
2023/04/25 01:42:34;;;;;;;0.00;0.00;;;;;;;;;;4994894;28;20486;-91
2023/04/25 01:45:01;;;;;;;0.00;0.00;;;;;;;;;;4979554;28;20074;-88
2023/04/25 01:47:27;;;;;;;0.00;0.00;;;;;;;;;;4994858;28;20498;-89
2023/04/25 01:49:53;;;;;;;0.00;0.00;;;;;;;;;;4995160;28;20125;-89
2023/04/25 01:52:20;;;;;;;0.00;0.00;;;;;;;;;;4978515;28;20084;-88
2023/04/25 01:54:46;;;;;;;0.00;0.00;;;;;;;;;;4978929;28;20161;-89
2023/04/25 01:57:12;;;;;;;0.00;0.00;;;;;;;;;;4978563;28;20038;-90
2023/04/25 01:59:38;;;;;;;0.00;0.00;;;;;;;;;;4979528;28;20486;-90
2023/04/25 02:02:05;;;;;;;0.00;0.00;;;;;;;;;;4978768;28;20181;-90
2023/04/25 02:04:31;;;;;;;0.00;0.00;;;;;;;;;;4995028;28;20486;-90
2023/04/25 02:06:57;;;;;;;0.00;0.00;;;;;;;;;;4978794;28;20047;-90
2023/04/25 02:09:23;;;;;;;0.00;0.00;;;;;;;;;;4995404;28;20069;-91
2023/04/25 02:11:49;;;;;;;0.00;0.00;;;;;;;;;;4978740;28;20478;-90
2023/04/25 02:14:15;;;;;;;0.00;0.00;;;;;;;;;;4978837;28;20129;-89
2023/04/25 02:16:43;;;;;;;0.00;0.00;;;;;;;;;;4978454;28;20451;-90
2023/04/25 02:19:10;;;;;;;0.00;0.00;;;;;;;;;;4978923;28;20034;-89
2023/04/25 02:21:36;;;;;;;0.00;0.00;;;;;;;;;;4978395;28;20044;-90
2023/04/25 02:24:02;;;;;;;0.00;0.00;;;;;;;;;;4978732;28;20038;-89
2023/04/25 02:26:28;;;;;;;0.00;0.00;;;;;;;;;;4994616;28;20042;-88
2023/04/25 02:28:54;;;;;;;0.00;0.00;;;;;;;;;;4994641;28;20053;-90
2023/04/25 02:31:20;;;;;;;0.00;0.00;;;;;;;;;;4978558;28;20108;-89
2023/04/25 02:33:48;;;;;;;0.00;0.00;;;;;;;;;;4976991;28;20042;-90
2023/04/25 02:36:14;;;;;;;0.00;0.00;;;;;;;;;;4994051;28;20042;-89
2023/04/25 02:38:40;;;;;;;0.00;0.00;;;;;;;;;;4994048;28;20049;-89
2023/04/25 02:41:06;;;;;;;0.00;0.00;;;;;;;;;;4978240;28;20038;-90
2023/04/25 02:43:32;;;;;;;0.00;0.00;;;;;;;;;;4994115;28;20053;-88
2023/04/25 02:45:58;;;;;;;0.00;0.00;;;;;;;;;;4994720;28;20066;-90
2023/04/25 02:48:24;;;;;;;0.00;0.00;;;;;;;;;;4978812;28;20050;-89
2023/04/25 02:50:50;;;;;;;0.00;0.00;;;;;;;;;;4979184;28;20049;-91
2023/04/25 02:53:16;;;;;;;0.00;0.00;;;;;;;;;;4994796;28;20038;-90
2023/04/25 02:55:42;;;;;;;0.00;0.00;;;;;;;;;;4994093;28;20046;-88
2023/04/25 02:58:08;;;;;;;0.00;0.00;;;;;;;;;;4978078;28;20042;-89
2023/04/25 03:00:34;;;;;;;0.00;0.00;;;;;;;;;;4978043;28;20046;-91
2023/04/25 03:03:00;;;;;;;0.00;0.00;;;;;;;;;;4977970;28;20397;-90
2023/04/25 03:05:26;;;;;;;0.00;0.00;;;;;;;;;;4993928;28;20197;-90
2023/04/25 03:07:52;;;;;;;0.00;0.00;;;;;;;;;;4994066;28;20042;-89
2023/04/25 03:10:18;;;;;;;0.00;0.00;;;;;;;;;;4994489;28;20457;-90
2023/04/25 03:12:44;;;;;;;0.00;0.00;;;;;;;;;;4977751;28;20057;-90
2023/04/25 03:15:10;;;;;;;0.00;0.00;;;;;;;;;;4993903;28;20347;-90
2023/04/25 03:17:36;;;;;;;0.43;0.17;;;;;;;;;;4977725;28;20042;-90
2023/04/25 03:20:03;;;;;;;0.00;0.00;;;;;;;;;;4994234;28;20409;-89
2023/04/25 03:22:29;;;;;;;0.00;0.00;;;;;;;;;;4977373;28;20120;-90
2023/04/25 03:24:56;;;;;;;0.00;0.00;;;;;;;;;;4977915;28;20068;-89
2023/04/25 03:27:22;;;;;;;0.00;0.00;;;;;;;;;;4977019;28;20434;-89
2023/04/25 03:29:48;;;;;;;0.00;0.00;;;;;;;;;;4977491;28;20081;-89
2023/04/25 03:32:14;;;;;;;0.00;0.00;;;;;;;;;;4977699;28;20073;-89
2023/04/25 03:34:40;;;;;;;0.00;0.00;;;;;;;;;;4977091;28;20497;-89
2023/04/25 03:37:06;;;;;;;0.00;0.00;;;;;;;;;;4977255;28;20042;-89
2023/04/25 03:39:32;;;;;;;0.00;0.00;;;;;;;;;;4993061;28;20126;-88
2023/04/25 03:41:58;;;;;;;0.00;0.00;;;;;;;;;;4993069;28;20124;-89
2023/04/25 03:44:24;;;;;;;0.00;0.00;;;;;;;;;;4976801;28;20039;-88
2023/04/25 03:46:50;;;;;;;0.00;0.00;;;;;;;;;;4992766;28;20085;-90
2023/04/25 03:49:17;;;;;;;0.00;0.00;;;;;;;;;;4976720;28;20046;-89
2023/04/25 03:51:43;;;;;;;0.00;0.00;;;;;;;;;;4976892;28;20088;-89
2023/04/25 03:54:09;;;;;;;0.00;0.00;;;;;;;;;;4976661;28;20046;-89
2023/04/25 03:56:35;;;;;;;0.00;0.00;;;;;;;;;;4992835;28;20088;-89
2023/04/25 03:59:01;;;;;;;0.00;0.00;;;;;;;;;;4992959;28;20046;-89
2023/04/25 04:01:27;;;;;;;0.00;0.00;;;;;;;;;;4992998;28;20041;-88
2023/04/25 04:03:53;;;;;;;0.00;0.00;;;;;;;;;;4992332;28;20061;-89
2023/04/25 04:06:20;;;;;;;0.00;0.00;;;;;;;;;;4975996;28;20042;-88
2023/04/25 04:08:46;;;;;;;0.00;0.00;;;;;;;;;;4976059;28;20105;-90
2023/04/25 04:11:12;;;;;;;0.00;0.00;;;;;;;;;;4976675;28;20121;-89
2023/04/25 04:13:38;;;;;;;0.00;0.00;;;;;;;;;;4976035;28;20104;-90
2023/04/25 04:16:05;;;;;;;0.00;0.00;;;;;;;;;;4976416;28;20050;-89
2023/04/25 04:18:31;;;;;;;0.00;0.00;;;;;;;;;;4976390;28;20038;-89
2023/04/25 04:20:58;;;;;;;0.00;0.00;;;;;;;;;;4976130;28;20047;-89
2023/04/25 04:23:24;;;;;;;0.00;0.00;;;;;;;;;;4976065;28;20128;-89
2023/04/25 04:25:50;;;;;;;0.00;0.00;;;;;;;;;;4976254;28;20071;-89
2023/04/25 04:28:16;;;;;;;0.00;0.00;;;;;;;;;;4976329;28;20124;-89
2023/04/25 04:30:45;;;;;;;0.00;0.00;;;;;;;;;;4992594;28;20077;-89
2023/04/25 04:33:12;;;;;;;0.00;0.00;;;;;;;;;;4975928;28;20065;-90
2023/04/25 04:35:38;;;;;;;0.00;0.00;;;;;;;;;;4992296;28;20038;-91
2023/04/25 04:38:04;;;;;;;0.00;0.00;;;;;;;;;;4993060;28;20134;-90
2023/04/25 04:40:31;;;;;;;0.00;0.00;;;;;;;;;;4977414;28;20064;-89
2023/04/25 04:42:57;;;;;;;0.00;0.00;;;;;;;;;;4992807;28;20046;-87
2023/04/25 04:45:23;;;;;;;0.00;0.00;;;;;;;;;;4992608;28;20043;-89
2023/04/25 04:47:49;;;;;;;0.00;0.00;;;;;;;;;;4977117;28;20070;-90
2023/04/25 04:50:16;;;;;;;0.00;0.00;;;;;;;;;;4960679;28;20138;-90
2023/04/25 04:52:42;;;;;;;0.00;0.00;;;;;;;;;;4993081;28;20044;-89
2023/04/25 04:55:08;;;;;;;0.00;0.00;;;;;;;;;;4976454;28;20066;-89
2023/04/25 04:57:35;;;;;;;0.00;0.00;;;;;;;;;;4993365;28;20046;-90
2023/04/25 05:00:01;;;;;;;0.00;0.00;;;;;;;;;;4980237;28;20035;-90
2023/04/25 05:02:27;;;;;;;0.00;0.00;;;;;;;;;;4979650;28;20053;-90
2023/04/25 05:04:53;;;;;;;0.00;0.00;;;;;;;;;;4979525;28;20383;-89
2023/04/25 05:07:19;;;;;;;0.00;0.00;;;;;;;;;;4980068;28;20046;-89
2023/04/25 05:09:45;;;;;;;0.00;0.00;;;;;;;;;;4979693;28;20057;-89
2023/04/25 05:12:11;;;;;;;0.00;0.00;;;;;;;;;;4979783;28;20043;-90
2023/04/25 05:14:37;;;;;;;0.00;0.00;;;;;;;;;;4979727;28;20046;-90
2023/04/25 05:17:08;;;;;;;0.00;0.00;;;;;;;;;;4979713;28;20421;-89
2023/04/25 05:19:34;;;;;;;0.00;0.00;;;;;;;;;;4995547;28;20493;-88
2023/04/25 05:22:00;;;;;;;0.00;0.00;;;;;;;;;;4979419;28;20085;-89
2023/04/25 05:24:26;;;;;;;0.00;0.00;;;;;;;;;;4979214;28;20054;-88
2023/04/25 05:26:52;;;;;;;0.00;0.00;;;;;;;;;;4979683;28;20050;-89
2023/04/25 05:29:18;;;;;;;0.00;0.00;;;;;;;;;;4979492;28;20096;-88
2023/04/25 05:31:45;;;;;;;0.00;0.00;;;;;;;;;;4995985;28;20054;-88
2023/04/25 05:34:11;;;;;;;0.00;0.00;;;;;;;;;;4995035;28;20046;-90
2023/04/25 05:36:37;;;;;;;0.00;0.00;;;;;;;;;;4995355;28;20098;-87
2023/04/25 05:39:04;;;;;;;0.00;0.00;;;;;;;;;;4979211;28;20050;-89
2023/04/25 05:41:30;;;;;;;0.00;0.00;;;;;;;;;;4979434;28;20100;-89
2023/04/25 05:43:56;;;;;;;0.00;0.00;;;;;;;;;;4995074;28;20132;-89
2023/04/25 05:46:22;;;;;;;0.00;0.00;;;;;;;;;;4979162;28;20328;-89
2023/04/25 05:48:48;;;;;;;0.00;0.00;;;;;;;;;;4978688;28;20043;-89
2023/04/25 05:51:14;;;;;;;0.00;0.00;;;;;;;;;;4979378;28;20437;-89
2023/04/25 05:53:40;;;;;;;0.00;0.00;;;;;;;;;;4978843;28;20050;-89
2023/04/25 05:56:06;;;;;;;0.00;0.00;;;;;;;;;;4995121;28;20042;-90
2023/04/25 05:58:32;;;;;;;0.00;0.00;;;;;;;;;;4979310;28;20096;-89
2023/04/25 06:00:58;;;;;;;0.00;0.00;;;;;;;;;;4978813;28;20058;-90
2023/04/25 06:03:24;;;;;;;0.00;0.00;;;;;;;;;;4978632;28;20056;-89
2023/04/25 06:05:50;;;;;;;0.00;0.00;;;;;;;;;;4978585;28;20052;-90
2023/04/25 06:08:16;;;;;;;0.00;0.00;;;;;;;;;;4978589;28;20049;-88
2023/04/25 06:10:42;;;;;;;0.00;0.00;;;;;;;;;;4978641;28;20462;-90
2023/04/25 06:13:08;;;;;;;0.00;0.00;;;;;;;;;;4978728;28;20038;-90
2023/04/25 06:15:34;;;;;;;0.00;0.00;;;;;;;;;;4978523;28;20042;-89
2023/04/25 06:18:00;;;;;;;0.00;0.00;;;;;;;;;;4978618;28;20054;-90
2023/04/25 06:20:26;;;;;;;0.00;0.00;;;;;;;;;;4994868;28;20034;-87
2023/04/25 06:22:54;;;;;;;0.00;0.00;;;;;;;;;;4994510;28;20050;-91
2023/04/25 06:25:20;;;;;;;0.00;0.00;;;;;;;;;;4978317;28;20039;-90
2023/04/25 06:27:46;;;;;;;0.00;0.00;;;;;;;;;;4978288;28;20038;-90
2023/04/25 06:30:12;;;;;;;0.00;0.00;;;;;;;;;;4994447;28;20129;-91
2023/04/25 06:32:41;;;;;;;0.00;0.00;;;;;;;;;;4981997;28;20045;-92
2023/04/25 06:35:07;;;;;;;0.20;0.00;;;;;;;;;;4979765;28;20331;-92
2023/04/25 06:37:33;;;;;;;0.00;0.00;;;;;;;;;;4995387;28;20038;-93
2023/04/25 06:39:59;;;;;;;0.00;0.00;;;;;;;;;;4978542;28;20492;-89
2023/04/25 06:42:25;;;;;;;0.00;0.00;;;;;;;;;;4978069;28;20077;-89
2023/04/25 06:44:51;;;;;;;0.00;0.00;;;;;;;;;;4994429;28;20181;-89
2023/04/25 06:47:20;;;;;;;0.00;0.00;;;;;;;;;;4995787;28;20122;-95
2023/04/25 06:49:49;;;;;;;0.00;0.00;;;;;;;;;;4998658;28;20046;-90
2023/04/25 06:52:18;;;;;;;0.00;0.00;;;;;;;;;;4995833;28;20074;-91
2023/04/25 06:54:44;;;;;;;0.00;0.00;;;;;;;;;;4989741;28;20049;-92
2023/04/25 06:57:11;;;;;;;0.00;0.00;;;;;;;;;;4998455;28;20049;-91
2023/04/25 06:59:37;;;;;;;0.00;0.00;;;;;;;;;;4995696;28;20034;-87
2023/04/25 07:02:06;;;;;;;0.00;0.00;;;;;;;;;;4979012;28;20034;-87
2023/04/25 07:04:32;;;;;;;0.00;0.00;;;;;;;;;;4993591;28;20046;-89
2023/04/25 07:07:00;;;;;;;0.00;0.00;;;;;;;;;;4993909;28;20054;-90
2023/04/25 07:09:26;;;;;;;0.00;0.00;;;;;;;;;;4977883;28;20100;-89
2023/04/25 07:11:52;;;;;;;0.00;0.00;;;;;;;;;;4977844;28;20046;-88
2023/04/25 07:14:18;;;;;;;0.00;0.00;;;;;;;;;;4977124;28;20052;-88
2023/04/25 07:16:44;;;;;;;0.00;0.00;;;;;;;;;;4992919;28;20061;-89
2023/04/25 07:19:10;;;;;;;0.00;0.00;;;;;;;;;;4993736;28;20039;-88
2023/04/25 07:21:36;;;;;;;0.00;0.00;;;;;;;;;;4992523;28;20430;-89
2023/04/25 07:24:02;;;;;;;0.00;0.00;;;;;;;;;;4977458;28;20102;-88
2023/04/25 07:26:28;;;;;;;0.00;0.00;;;;;;;;;;4993164;28;20193;-89
2023/04/25 07:28:55;;;;;;;0.00;0.00;;;;;;;;;;4993971;28;20066;-89
2023/04/25 07:31:21;;;;;;;0.00;0.00;;;;;;;;;;4976736;28;20560;-90
2023/04/25 07:33:47;;;;;;;0.00;0.00;;;;;;;;;;4976873;28;20077;-87
2023/04/25 07:36:15;;;;;;;0.00;0.00;;;;;;;;;;4992785;28;20042;-89
2023/04/25 07:38:41;;;;;;;0.00;0.00;;;;;;;;;;4993433;28;20065;-88
2023/04/25 07:41:07;;;;;;;0.00;0.00;;;;;;;;;;4993044;28;20043;-87
2023/04/25 07:43:33;;;;;;;0.00;0.00;;;;;;;;;;4976672;28;20128;-88
2023/04/25 07:45:59;;;;;;;0.00;0.00;;;;;;;;;;4976573;28;20038;-90
2023/04/25 07:48:25;;;;;;;0.00;0.00;;;;;;;;;;4976609;28;20460;-87
2023/04/25 07:50:51;;;;;;;0.00;0.00;;;;;;;;;;4992609;28;20054;-89
2023/04/25 07:53:18;;;;;;;0.00;0.00;;;;;;;;;;4976622;28;20065;-88
2023/04/25 07:55:44;;;;;;;0.00;0.00;;;;;;;;;;4976339;28;20119;-88
2023/04/25 07:58:10;;;;;;;0.00;0.00;;;;;;;;;;4976691;28;20038;-89
2023/04/25 08:00:36;;;;;;;0.00;0.00;;;;;;;;;;4992310;28;20124;-88
2023/04/25 08:03:02;;;;;;;0.00;0.00;;;;;;;;;;4976589;28;20125;-89
2023/04/25 08:05:29;;;;;;;0.00;0.00;;;;;;;;;;4976056;28;20062;-89
2023/04/25 08:07:56;;;;;;;0.00;0.00;;;;;;;;;;4976295;28;20048;-88
2023/04/25 08:10:22;;;;;;;0.00;0.00;;;;;;;;;;4976352;28;20042;-87
2023/04/25 08:12:49;;;;;;;0.00;0.00;;;;;;;;;;4978023;28;20070;-87
2023/04/25 08:15:15;;;;;;;0.00;0.00;;;;;;;;;;4976977;28;20082;-88
2023/04/25 08:17:41;;;;;;;0.00;0.00;;;;;;;;;;4977068;28;20100;-89
2023/04/25 08:20:07;;;;;;;0.00;0.00;;;;;;;;;;4977554;28;20394;-90
2023/04/25 08:22:33;;;;;;;0.00;0.00;;;;;;;;;;4976896;28;20042;-89
2023/04/25 08:25:00;;;;;;;0.00;0.00;;;;;;;;;;4992729;28;20518;-88
2023/04/25 08:27:26;;;;;;;0.00;0.00;;;;;;;;;;4975909;28;20084;-88
2023/04/25 08:29:52;;;;;;;0.00;0.00;;;;;;;;;;4976056;28;20038;-87
2023/04/25 08:32:21;;;;;;;0.00;0.00;;;;;;;;;;4992048;28;20503;-89
2023/04/25 08:34:51;;;;;;;0.00;0.00;;;;;;;;;;4976995;28;20038;-93
2023/04/25 08:37:19;;;;;;;0.00;0.00;;;;;;;;;;4992149;28;20359;-89
2023/04/25 08:39:46;;;;;;;0.00;0.00;;;;;;;;;;4976088;28;20034;-87
2023/04/25 08:42:12;;;;;;;0.00;0.00;;;;;;;;;;4992349;28;20086;-91
2023/04/25 08:44:38;;;;;;;0.00;0.00;;;;;;;;;;4977049;28;20493;-89
2023/04/25 08:47:05;;;;;;;0.00;0.00;;;;;;;;;;4992507;28;20367;-89
2023/04/25 08:49:34;;;;;;;0.00;0.00;;;;;;;;;;4994435;28;20084;-88
2023/04/25 08:52:02;;;;;;;0.00;0.00;;;;;;;;;;4977637;28;20070;-89
2023/04/25 08:54:30;;;;;;;0.00;0.00;;;;;;;;;;4994980;28;20461;-89
2023/04/25 08:56:57;;;;;;;0.00;0.00;;;;;;;;;;4961584;28;20042;-89
2023/04/25 08:59:23;;;;;;;0.00;0.00;;;;;;;;;;4977957;28;20049;-90
2023/04/25 09:01:50;;;;;;;0.00;0.00;;;;;;;;;;4976606;28;20034;-88
2023/04/25 09:04:16;;;;;;;0.00;0.00;;;;;;;;;;4991854;28;20417;-89
2023/04/25 09:06:42;;;;;;;0.00;0.00;;;;;;;;;;4975631;28;20137;-88
2023/04/25 09:09:10;;;;;;;0.00;0.00;;;;;;;;;;4975781;28;20046;-88
2023/04/25 09:11:37;;;;;;;0.00;0.00;;;;;;;;;;4991444;28;20046;-88
2023/04/25 09:14:16;;;;;;;0.00;0.00;;;;;;;;;;4975288;28;20131;-87
2023/04/25 09:17:02;;;;;;;0.00;0.00;;;;;;;;;;4991472;28;20088;-88
2023/04/25 09:19:35;;;;;;;0.00;0.00;;;;;;;;;;4971497;28;20121;-87
2023/04/25 09:22:05;;;;;;;0.00;0.00;;;;;;;;;;4975179;28;20039;-87
2023/04/25 09:24:31;;;;;;;0.00;0.00;;;;;;;;;;4991450;28;20044;-88
2023/04/25 09:26:57;;;;;;;0.00;0.00;;;;;;;;;;4991286;28;20042;-88
2023/04/25 09:29:34;;;;;;;0.00;0.00;;;;;;;;;;4991291;28;20058;-87
2023/04/25 09:32:15;;;;;;;0.00;0.00;;;;;;;;;;4991360;28;20081;-87
2023/04/25 09:34:41;;;;;;;0.00;0.00;;;;;;;;;;4991670;28;20046;-86
2023/04/25 09:37:10;;;;;;;0.00;0.00;;;;;;;;;;4974931;28;20065;-87
2023/04/25 09:39:37;;;;;;;0.00;0.00;;;;;;;;;;4991398;28;20045;-86
2023/04/25 09:42:04;;;;;;;0.00;0.00;;;;;;;;;;4990825;28;20034;-86
2023/04/25 09:44:30;;;;;;;0.00;0.00;;;;;;;;;;4993494;28;20077;-86
2023/04/25 09:46:56;;;;;;;0.00;0.00;;;;;;;;;;4994852;28;20048;-86
2023/04/25 09:49:23;;;;;;;0.00;0.00;;;;;;;;;;4994956;28;20312;-87
2023/04/25 09:51:56;;;;;;;0.00;0.00;;;;;;;;;;4994565;28;20510;-88
2023/04/25 09:54:22;;;;;;;0.00;0.00;;;;;;;;;;4978535;28;20422;-86
2023/04/25 09:56:48;;;;;;;0.00;0.00;;;;;;;;;;4978170;28;20133;-86
2023/04/25 09:59:15;;;;;;;0.00;0.00;;;;;;;;;;4978507;28;20078;-86
2023/04/25 10:01:42;;;;;;;0.00;0.00;;;;;;;;;;4994471;28;20038;-86
2023/04/25 10:04:10;;;;;;;0.00;0.00;;;;;;;;;;4994316;28;20513;-87
2023/04/25 10:06:38;;;;;;;0.00;0.00;;;;;;;;;;4994388;28;20070;-87
2023/04/25 10:09:04;;;;;;;0.00;0.00;;;;;;;;;;4978510;28;20046;-87
2023/04/25 10:11:30;;;;;;;0.00;0.00;;;;;;;;;;4994083;28;20537;-86
2023/04/25 10:13:56;;;;;;;0.00;0.00;;;;;;;;;;4994199;28;20129;-86
2023/04/25 10:16:23;;;;;;;0.00;0.00;;;;;;;;;;4994360;28;20112;-86
2023/04/25 10:18:50;;;;;;;0.00;0.00;;;;;;;;;;4978287;28;20039;-87
2023/04/25 10:21:16;;;;;;;0.00;0.00;;;;;;;;;;4994445;28;20478;-87
2023/04/25 10:23:42;;;;;;;0.00;0.00;;;;;;;;;;4993777;28;20045;-87
2023/04/25 10:26:12;;;;;;;0.00;0.00;;;;;;;;;;4977981;28;20068;-87
2023/04/25 10:29:00;;;;;;;0.00;0.00;;;;;;;;;;4994181;28;20121;-87
2023/04/25 10:31:26;;;;;;;0.00;0.00;;;;;;;;;;4994151;28;20045;-87
2023/04/25 10:33:53;;;;;;;0.00;0.00;;;;;;;;;;4993976;28;20042;-86
2023/04/25 10:36:23;;;;;;;0.00;0.00;;;;;;;;;;4977873;28;20066;-87
2023/04/25 10:38:50;;;;;;;0.00;0.00;;;;;;;;;;4977806;28;20367;-87
2023/04/25 10:41:18;;;;;;;0.00;0.00;;;;;;;;;;4977690;28;20078;-86
2023/04/25 10:43:45;;;;;;;0.00;0.00;;;;;;;;;;4993522;28;20053;-87
2023/04/25 10:46:15;;;;;;;0.00;0.00;;;;;;;;;;4993807;28;20448;-86
2023/04/25 10:48:48;;;;;;;0.00;0.00;;;;;;;;;;4993743;28;20552;-85
2023/04/25 10:51:26;;;;;;;0.00;0.00;;;;;;;;;;4977580;28;20126;-86
2023/04/25 10:53:55;;;;;;;0.00;0.00;;;;;;;;;;4973507;28;20109;-87
2023/04/25 10:56:28;;;;;;;0.00;0.00;;;;;;;;;;4976410;28;20505;-86
2023/04/25 10:59:05;;;;;;;0.00;0.00;;;;;;;;;;4976964;28;20042;-88
2023/04/25 11:01:36;;;;;;;0.00;0.00;;;;;;;;;;4993398;28;20106;-86
2023/04/25 11:04:02;;;;;;;0.00;0.00;;;;;;;;;;4993091;28;20058;-87
2023/04/25 11:06:37;;;;;;;0.00;0.00;;;;;;;;;;4977183;28;20404;-86
2023/04/25 11:09:03;;;;;;;0.00;0.00;;;;;;;;;;4993221;28;20090;-87
2023/04/25 11:11:30;;;;;;;0.00;0.00;;;;;;;;;;4993536;28;20393;-86
2023/04/25 11:13:56;;;;;;;0.00;0.00;;;;;;;;;;4976633;28;20042;-86
2023/04/25 11:16:27;;;;;;;0.00;0.00;;;;;;;;;;4976986;28;20513;-87
2023/04/25 11:18:53;;;;;;;0.00;0.00;;;;;;;;;;4992884;28;20042;-87
2023/04/25 11:21:19;;;;;;;0.00;0.00;;;;;;;;;;4993104;28;20046;-86
2023/04/25 11:23:46;;;;;;;0.00;0.00;;;;;;;;;;4992867;28;20075;-86
2023/04/25 11:26:14;;;;;;;0.00;0.00;;;;;;;;;;4976927;28;20116;-86
2023/04/25 11:28:40;;;;;;;0.00;0.00;;;;;;;;;;4976624;28;20050;-86
2023/04/25 11:31:06;;;;;;;0.00;0.00;;;;;;;;;;4976992;28;20487;-86
2023/04/25 11:33:32;;;;;;;0.00;0.00;;;;;;;;;;4992394;28;20046;-85
2023/04/25 11:35:58;;;;;;;0.00;0.00;;;;;;;;;;4976928;28;20053;-86
2023/04/25 11:38:25;;;;;;;0.00;0.00;;;;;;;;;;4976533;28;20038;-86
2023/04/25 11:40:52;;;;;;;0.00;0.00;;;;;;;;;;4992604;28;20053;-86
2023/04/25 11:43:20;;;;;;;0.00;0.00;;;;;;;;;;4992540;28;20125;-87
2023/04/25 11:45:50;;;;;;;0.00;0.00;;;;;;;;;;4992568;28;20046;-88
2023/04/25 11:48:17;;;;;;;0.00;0.00;;;;;;;;;;4992741;28;20508;-86
2023/04/25 11:50:43;;;;;;;0.00;0.00;;;;;;;;;;4992802;28;20053;-87
2023/04/25 11:53:10;;;;;;;0.00;0.00;;;;;;;;;;4992043;28;20046;-88
2023/04/25 11:55:36;;;;;;;0.00;0.00;;;;;;;;;;4992327;28;20068;-86
2023/04/25 11:58:03;;;;;;;0.00;0.00;;;;;;;;;;4992507;28;20047;-86
2023/04/25 12:00:29;;;;;;;0.00;0.00;;;;;;;;;;4976550;28;20078;-86
2023/04/25 12:02:57;;;;;;;0.00;0.00;;;;;;;;;;4992296;28;20053;-87
2023/04/25 12:05:28;;;;;;;0.00;0.00;;;;;;;;;;4976147;28;20491;-86
2023/04/25 12:07:54;;;;;;;0.00;0.00;;;;;;;;;;4976013;28;20057;-86
2023/04/25 12:10:21;;;;;;;0.00;0.00;;;;;;;;;;4992344;28;20042;-86
2023/04/25 12:12:47;;;;;;;0.00;0.00;;;;;;;;;;4975853;28;20389;-86
2023/04/25 12:15:19;;;;;;;0.00;0.00;;;;;;;;;;4992136;28;20038;-86
2023/04/25 12:17:48;;;;;;;0.00;0.00;;;;;;;;;;4975605;28;20050;-86
2023/04/25 12:20:15;;;;;;;0.00;0.00;;;;;;;;;;4975782;28;20034;-86
2023/04/25 12:22:46;;;;;;;0.00;0.00;;;;;;;;;;4991981;28;20049;-86
2023/04/25 12:25:32;;;;;;;0.00;0.00;;;;;;;;;;4976180;28;20389;-85
2023/04/25 12:28:20;;;;;;;0.00;0.00;;;;;;;;;;4978659;28;20050;-86
2023/04/25 12:30:56;;;;;;;0.00;0.00;;;;;;;;;;4992030;28;20042;-86
2023/04/25 12:33:22;;;;;;;0.00;0.00;;;;;;;;;;4975844;28;20042;-86
2023/04/25 12:35:48;;;;;;;0.00;0.00;;;;;;;;;;4991785;28;20043;-86
2023/04/25 12:38:26;;;;;;;0.00;0.00;;;;;;;;;;4991855;28;20501;-86
2023/04/25 12:40:53;;;;;;;0.00;0.00;;;;;;;;;;4991813;28;20042;-86
2023/04/25 12:43:19;;;;;;;0.00;0.00;;;;;;;;;;4975555;28;20450;-86
2023/04/25 12:45:45;;;;;;;0.00;0.00;;;;;;;;;;4991666;28;20054;-86
2023/04/25 12:48:11;;;;;;;0.00;0.00;;;;;;;;;;4991664;28;20038;-86
2023/04/25 12:50:37;;;;;;;0.00;0.00;;;;;;;;;;4991763;28;20049;-86
2023/04/25 12:53:03;;;;;;;0.00;0.00;;;;;;;;;;4991537;28;20137;-86
2023/04/25 12:55:29;;;;;;;0.00;0.00;;;;;;;;;;4975687;28;20500;-86
2023/04/25 12:57:55;;;;;;;0.00;0.00;;;;;;;;;;4975533;28;20140;-86
2023/04/25 13:00:21;;;;;;;0.00;0.00;;;;;;;;;;4975542;28;20394;-86
2023/04/25 13:02:47;;;;;;;0.00;0.00;;;;;;;;;;4991511;28;20042;-85
2023/04/25 13:05:13;;;;;;;0.00;0.00;;;;;;;;;;4975355;28;20050;-87
2023/04/25 13:07:40;;;;;;;0.00;0.00;;;;;;;;;;4992059;28;20080;-86
2023/04/25 13:10:07;;;;;;;0.00;0.00;;;;;;;;;;4975252;28;20050;-86
2023/04/25 13:12:33;;;;;;;0.00;0.00;;;;;;;;;;4991500;28;20050;-86
2023/04/25 13:14:59;;;;;;;0.00;0.00;;;;;;;;;;4992044;28;20155;-86
2023/04/25 13:17:25;;;;;;;0.00;0.00;;;;;;;;;;4991375;28;20562;-86
2023/04/25 13:19:51;;;;;;;0.00;0.00;;;;;;;;;;4994397;28;20120;-86
2023/04/25 13:22:19;;;;;;;0.00;0.00;;;;;;;;;;4995393;28;20070;-86
2023/04/25 13:24:46;;;;;;;0.00;0.00;;;;;;;;;;4979260;28;20080;-86
2023/04/25 13:27:12;;;;;;;0.00;0.00;;;;;;;;;;4995561;28;20150;-85
2023/04/25 13:29:40;;;;;;;0.00;0.00;;;;;;;;;;4979408;28;20470;-86
2023/04/25 13:32:06;;;;;;;0.00;0.00;;;;;;;;;;4979890;28;20049;-86
2023/04/25 13:34:32;;;;;;;0.00;0.00;;;;;;;;;;4980442;28;20097;-86
2023/04/25 13:36:58;;;;;;;0.00;0.00;;;;;;;;;;4996165;28;20047;-86
2023/04/25 13:39:25;;;;;;;0.00;0.00;;;;;;;;;;4995152;28;20035;-86
2023/04/25 13:41:51;;;;;;;0.00;0.00;;;;;;;;;;4979108;28;20039;-86
2023/04/25 13:44:17;;;;;;;0.00;0.00;;;;;;;;;;4994799;28;20038;-86
2023/04/25 13:46:42;;;;;;;0.00;0.00;;;;;;;;;;4995063;28;20081;-85
2023/04/25 13:49:09;;;;;;;0.00;0.00;;;;;;;;;;4994756;28;20574;-85
2023/04/25 13:51:35;;;;;;;0.00;0.00;;;;;;;;;;4995197;28;20188;-86
2023/04/25 13:54:02;;;;;;;0.00;0.00;;;;;;;;;;4994681;28;20042;-86
2023/04/25 13:56:28;;;;;;;0.00;0.00;;;;;;;;;;4994955;28;20462;-86
2023/04/25 13:58:54;;;;;;;0.00;0.00;;;;;;;;;;4994498;28;20085;-86
2023/04/25 14:01:20;;;;;;;0.00;0.00;;;;;;;;;;4994788;28;20034;-89
2023/04/25 14:03:47;;;;;;;0.00;0.00;;;;;;;;;;4978175;28;20054;-86
2023/04/25 14:06:13;;;;;;;0.00;0.00;;;;;;;;;;4994883;28;20193;-87
2023/04/25 14:08:40;;;;;;;0.00;0.00;;;;;;;;;;4994673;28;20046;-86
2023/04/25 14:11:06;;;;;;;0.00;0.00;;;;;;;;;;4978065;28;20478;-86
2023/04/25 14:13:31;;;;;;;0.00;0.00;;;;;;;;;;4978098;28;20141;-86
2023/04/25 14:15:57;;;;;;;0.00;0.00;;;;;;;;;;4978092;28;20043;-85
2023/04/25 14:18:23;;;;;;;0.00;0.00;;;;;;;;;;4978152;28;20517;-87
2023/04/25 14:20:49;;;;;;;0.00;0.00;;;;;;;;;;4978146;28;20038;-86
2023/04/25 14:23:17;;;;;;;0.00;0.00;;;;;;;;;;4994100;28;20146;-87
2023/04/25 14:25:44;;;;;;;0.00;0.00;;;;;;;;;;4994052;28;20120;-86
2023/04/25 14:28:11;;;;;;;0.00;0.00;;;;;;;;;;4994788;28;20089;-86
2023/04/25 14:30:37;;;;;;;0.00;0.00;;;;;;;;;;4977580;28;20437;-85
2023/04/25 14:33:03;;;;;;;0.00;0.00;;;;;;;;;;4977711;28;20034;-85
2023/04/25 14:35:29;;;;;;;0.00;0.00;;;;;;;;;;4993769;28;20038;-86
2023/04/25 14:37:55;;;;;;;0.00;0.00;;;;;;;;;;4994139;28;20047;-86
2023/04/25 14:40:23;;;;;;;0.00;0.00;;;;;;;;;;4993774;28;20050;-84